createdAt,value
2016-12-12T00:00:49.260Z,1014.82
2016-12-12T00:05:46.379Z,1014.91
2016-12-12T00:10:42.593Z,1014.92
2016-12-12T00:15:39.015Z,1014.97
2016-12-12T00:20:35.729Z,1015.10
2016-12-12T00:25:32.443Z,1015.14
2016-12-12T00:30:28.822Z,1015.24
2016-12-12T00:35:25.328Z,1015.22
2016-12-12T00:40:21.955Z,1015.21
2016-12-12T00:45:18.084Z,1015.38
2016-12-12T00:50:14.688Z,1015.40
2016-12-12T00:55:11.928Z,1015.40
2016-12-12T01:00:10.286Z,1015.38
2016-12-12T01:05:06.369Z,1015.51
2016-12-12T01:10:02.979Z,1015.48
2016-12-12T01:15:00.093Z,1015.53
2016-12-12T01:19:56.591Z,1015.54
2016-12-12T01:24:53.201Z,1015.56
2016-12-12T01:29:49.427Z,1015.53
2016-12-12T01:34:46.073Z,1015.56
2016-12-12T01:39:42.633Z,1015.59
2016-12-12T01:44:39.166Z,1015.54
2016-12-12T01:49:35.714Z,1015.65
2016-12-12T01:54:32.249Z,1015.66
2016-12-12T01:59:28.798Z,1015.62
2016-12-12T02:04:25.262Z,1015.68
2016-12-12T02:09:21.851Z,1015.73
2016-12-12T02:14:18.681Z,1015.64
2016-12-12T02:19:16.127Z,1015.69
2016-12-12T02:24:12.352Z,1015.72
2016-12-12T02:29:09.610Z,1015.68
2016-12-12T02:34:06.214Z,1015.72
2016-12-12T02:39:02.675Z,1015.76
2016-12-12T02:43:59.241Z,1015.85
2016-12-12T02:48:55.579Z,1015.84
2016-12-12T02:53:52.211Z,1015.92
2016-12-12T02:58:49.097Z,1015.84
2016-12-12T03:03:45.419Z,1015.91
2016-12-12T03:08:42.141Z,1015.94
2016-12-12T03:13:39.194Z,1015.94
2016-12-12T03:18:35.684Z,1015.99
2016-12-12T03:23:33.923Z,1015.93
2016-12-12T03:28:30.118Z,1015.84
2016-12-12T03:33:26.722Z,1015.92
2016-12-12T03:38:23.414Z,1015.96
2016-12-12T03:43:19.961Z,1016.00
2016-12-12T03:48:16.270Z,1015.99
2016-12-12T03:53:13.053Z,1016.06
2016-12-12T03:58:09.440Z,1016.07
2016-12-12T04:03:06.242Z,1016.04
2016-12-12T04:08:02.713Z,1016.08
2016-12-12T04:12:59.964Z,1016.09
2016-12-12T04:17:56.435Z,1016.13
2016-12-12T04:22:52.898Z,1016.24
2016-12-12T04:27:50.330Z,1016.20
2016-12-12T04:32:47.661Z,1016.24
2016-12-12T04:37:44.621Z,1016.32
2016-12-12T04:42:40.967Z,1016.25
2016-12-12T04:47:37.230Z,1016.31
2016-12-12T04:52:33.681Z,1016.28
2016-12-12T04:57:30.232Z,1016.35
2016-12-12T05:02:26.659Z,1016.29
2016-12-12T05:07:23.298Z,1016.34
2016-12-12T05:12:19.650Z,1016.35
2016-12-12T05:17:16.231Z,1016.30
2016-12-12T05:22:12.858Z,1016.33
2016-12-12T05:27:09.450Z,1016.31
2016-12-12T05:32:06.380Z,1016.36
2016-12-12T05:37:03.036Z,1016.46
2016-12-12T05:41:59.227Z,1016.53
2016-12-12T05:46:56.244Z,1016.45
2016-12-12T05:51:53.584Z,1016.60
2016-12-12T05:56:50.229Z,1016.61
2016-12-12T06:01:46.684Z,1016.69
2016-12-12T06:06:43.023Z,1016.82
2016-12-12T06:11:39.833Z,1016.83
2016-12-12T06:16:36.383Z,1016.97
2016-12-12T06:21:32.822Z,1017.00
2016-12-12T06:26:29.334Z,1016.98
2016-12-12T06:31:26.330Z,1017.04
2016-12-12T06:36:22.823Z,1017.07
2016-12-12T06:41:20.058Z,1017.14
2016-12-12T06:46:17.341Z,1017.33
2016-12-12T06:51:13.876Z,1017.35
2016-12-12T06:56:10.375Z,1017.42
2016-12-12T07:01:07.238Z,1017.36
2016-12-12T07:06:03.796Z,1017.56
2016-12-12T07:11:00.380Z,1017.45
2016-12-12T07:15:56.966Z,1017.51
2016-12-12T07:20:53.293Z,1017.48
2016-12-12T07:25:50.298Z,1017.52
2016-12-12T07:30:46.593Z,1017.56
2016-12-12T07:35:43.362Z,1017.68
2016-12-12T07:40:40.090Z,1017.68
2016-12-12T07:45:36.630Z,1017.81
2016-12-12T07:50:33.653Z,1017.80
2016-12-12T07:55:31.263Z,1017.97
2016-12-12T08:00:27.444Z,1018.07
2016-12-12T08:05:23.903Z,1018.12
2016-12-12T08:10:21.222Z,1018.14
2016-12-12T08:15:17.814Z,1018.18
2016-12-12T08:20:14.421Z,1018.25
2016-12-12T08:25:10.716Z,1018.35
2016-12-12T08:30:07.357Z,1018.33
2016-12-12T08:35:04.553Z,1018.37
2016-12-12T08:40:00.835Z,1018.34
2016-12-12T08:44:57.520Z,1018.37
2016-12-12T08:49:54.747Z,1018.46
2016-12-12T08:54:51.456Z,1018.60
2016-12-12T08:59:48.108Z,1018.70
2016-12-12T09:04:47.365Z,1018.72
2016-12-12T09:09:43.276Z,1018.74
2016-12-12T09:14:39.497Z,1018.83
2016-12-12T09:19:36.236Z,1018.79
2016-12-12T09:24:32.856Z,1018.87
2016-12-12T09:29:29.181Z,1018.88
2016-12-12T09:34:25.910Z,1018.86
2016-12-12T09:39:22.371Z,1018.91
2016-12-12T09:44:19.128Z,1018.93
2016-12-12T09:49:15.866Z,1018.91
2016-12-12T09:54:12.298Z,1018.95
2016-12-12T09:59:09.286Z,1018.96
2016-12-12T10:04:05.776Z,1018.93
2016-12-12T10:09:02.320Z,1018.90
2016-12-12T10:13:58.941Z,1018.83
2016-12-12T10:18:55.545Z,1018.93
2016-12-12T10:23:52.549Z,1018.85
2016-12-12T10:28:49.030Z,1018.90
2016-12-12T10:33:45.683Z,1019.02
2016-12-12T10:38:42.095Z,1019.03
2016-12-12T10:43:38.501Z,1019.11
2016-12-12T10:48:36.664Z,1019.10
2016-12-12T10:53:33.311Z,1019.16
2016-12-12T10:58:30.282Z,1019.12
2016-12-12T11:03:26.952Z,1019.13
2016-12-12T11:08:24.282Z,1019.21
2016-12-12T11:13:20.312Z,1019.19
2016-12-12T11:18:16.512Z,1019.18
2016-12-12T11:23:13.203Z,1019.23
2016-12-12T11:28:09.493Z,1019.16
2016-12-12T11:33:08.289Z,1019.14
2016-12-12T11:38:03.839Z,1019.09
2016-12-12T11:43:00.402Z,1019.03
2016-12-12T11:47:56.762Z,1019.05
2016-12-12T11:52:54.097Z,1019.04
2016-12-12T11:57:50.783Z,1019.05
2016-12-12T12:02:47.115Z,1019.09
2016-12-12T12:07:43.627Z,1019.14
2016-12-12T12:12:40.651Z,1019.07
2016-12-12T12:17:36.993Z,1019.13
2016-12-12T12:22:33.267Z,1019.02
2016-12-12T12:27:30.059Z,1019.05
2016-12-12T12:32:26.354Z,1019.04
2016-12-12T12:37:22.893Z,1019.06
2016-12-12T12:42:19.861Z,1019.04
2016-12-12T12:47:16.166Z,1018.98
2016-12-12T12:52:12.630Z,1018.91
2016-12-12T12:57:09.500Z,1018.89
2016-12-12T13:02:05.900Z,1018.88
2016-12-12T13:07:02.549Z,1018.86
2016-12-12T13:11:59.791Z,1018.94
2016-12-12T13:16:55.932Z,1018.86
2016-12-12T13:21:53.036Z,1018.99
2016-12-12T13:26:49.523Z,1019.04
2016-12-12T13:31:45.826Z,1019.02
2016-12-12T13:36:42.566Z,1018.98
2016-12-12T13:41:39.114Z,1019.07
2016-12-12T13:46:35.602Z,1018.98
2016-12-12T13:51:32.321Z,1019.02
2016-12-12T13:56:28.872Z,1019.13
2016-12-12T14:01:25.360Z,1019.18
2016-12-12T14:06:22.386Z,1019.24
2016-12-12T14:11:20.778Z,1019.22
2016-12-12T14:16:17.123Z,1019.24
2016-12-12T14:21:13.685Z,1019.32
2016-12-12T14:26:09.881Z,1019.28
2016-12-12T14:31:06.379Z,1019.25
2016-12-12T14:36:02.894Z,1019.40
2016-12-12T14:40:59.746Z,1019.45
2016-12-12T14:45:55.827Z,1019.48
2016-12-12T14:50:52.539Z,1019.49
2016-12-12T14:55:49.377Z,1019.48
2016-12-12T15:00:46.417Z,1019.59
2016-12-12T15:05:43.075Z,1019.64
2016-12-12T15:10:40.452Z,1019.73
2016-12-12T15:15:37.375Z,1019.75
2016-12-12T15:20:33.529Z,1019.75
2016-12-12T15:25:31.103Z,1019.73
2016-12-12T15:30:27.631Z,1019.77
2016-12-12T15:35:24.090Z,1019.68
2016-12-12T15:40:20.501Z,1019.63
2016-12-12T15:45:16.890Z,1019.59
2016-12-12T15:50:13.265Z,1019.59
2016-12-12T15:55:11.135Z,1019.68
2016-12-12T16:00:06.886Z,1019.66
2016-12-12T16:05:03.492Z,1019.67
2016-12-12T16:10:00.408Z,1019.65
2016-12-12T16:14:57.732Z,1019.59
2016-12-12T16:19:54.880Z,1019.55
2016-12-12T16:24:51.578Z,1019.49
2016-12-12T16:29:49.226Z,1019.47
2016-12-12T16:34:45.378Z,1019.49
2016-12-12T16:39:41.924Z,1019.57
2016-12-12T16:44:39.822Z,1019.52
2016-12-12T16:49:35.912Z,1019.51
2016-12-12T16:54:34.797Z,1019.44
2016-12-12T16:59:30.514Z,1019.50
2016-12-12T17:04:29.386Z,1019.40
2016-12-12T17:09:25.586Z,1019.40
2016-12-12T17:14:22.165Z,1019.61
2016-12-12T17:19:18.438Z,1019.60
2016-12-12T17:24:14.985Z,1019.52
2016-12-12T17:29:11.422Z,1019.56
2016-12-12T17:34:07.579Z,1019.44
2016-12-12T17:39:04.438Z,1019.49
2016-12-12T17:44:00.870Z,1019.52
2016-12-12T17:48:58.077Z,1019.55
2016-12-12T17:53:54.448Z,1019.61
2016-12-12T17:58:50.933Z,1019.68
2016-12-12T18:03:48.622Z,1019.58
2016-12-12T18:08:44.748Z,1019.59
2016-12-12T18:13:41.059Z,1019.59
2016-12-12T18:18:37.479Z,1019.61
2016-12-12T18:23:34.080Z,1019.53
2016-12-12T18:28:31.719Z,1019.61
2016-12-12T18:33:27.878Z,1019.52
2016-12-12T18:38:24.739Z,1019.45
2016-12-12T18:43:22.456Z,1019.55
2016-12-12T18:48:19.181Z,1019.55
2016-12-12T18:53:15.989Z,1019.56
2016-12-12T18:58:12.813Z,1019.56
2016-12-12T19:03:09.358Z,1019.46
2016-12-12T19:08:05.894Z,1019.46
2016-12-12T19:13:02.499Z,1019.41
2016-12-12T19:17:59.782Z,1019.46
2016-12-12T19:22:56.803Z,1019.51
2016-12-12T19:27:52.763Z,1019.59
2016-12-12T19:32:52.646Z,1019.55
2016-12-12T19:37:48.568Z,1019.55
2016-12-12T19:42:45.764Z,1019.54
2016-12-12T19:47:42.319Z,1019.57
2016-12-12T19:52:39.145Z,1019.58
2016-12-12T19:57:35.264Z,1019.54
2016-12-12T20:02:31.593Z,1019.57
2016-12-12T20:07:29.108Z,1019.63
2016-12-12T20:12:25.556Z,1019.70
2016-12-12T20:17:21.923Z,1019.70
2016-12-12T20:22:18.688Z,1019.78
2016-12-12T20:27:14.820Z,1019.77
2016-12-12T20:32:11.347Z,1019.82
2016-12-12T20:37:09.575Z,1019.77
2016-12-12T20:42:05.452Z,1019.80
2016-12-12T20:47:01.865Z,1019.73
2016-12-12T20:51:59.445Z,1019.70
2016-12-12T20:56:55.587Z,1019.75
2016-12-12T21:01:52.108Z,1019.75
2016-12-12T21:06:48.295Z,1019.70
2016-12-12T21:11:46.225Z,1019.79
2016-12-12T21:16:42.311Z,1019.72
2016-12-12T21:21:41.135Z,1019.71
2016-12-12T21:26:36.922Z,1019.68
2016-12-12T21:31:35.758Z,1019.72
2016-12-12T21:36:31.621Z,1019.66
2016-12-12T21:41:29.168Z,1019.64
2016-12-12T21:46:25.300Z,1019.60
2016-12-12T21:51:22.105Z,1019.63
2016-12-12T21:56:18.345Z,1019.68
2016-12-12T22:01:15.230Z,1019.64
2016-12-12T22:06:11.792Z,1019.65
2016-12-12T22:11:10.492Z,1019.69
2016-12-12T22:16:06.258Z,1019.60
2016-12-12T22:21:05.151Z,1019.48
2016-12-12T22:26:00.927Z,1019.40
2016-12-12T22:30:57.148Z,1019.45
2016-12-12T22:35:56.271Z,1019.43
2016-12-12T22:40:52.291Z,1019.43
2016-12-12T22:45:48.484Z,1019.36
2016-12-12T22:50:45.105Z,1019.31
2016-12-12T22:55:42.580Z,1019.19
2016-12-12T23:00:39.795Z,1019.13
2016-12-12T23:05:36.254Z,1019.05
2016-12-12T23:10:32.942Z,1018.98
2016-12-12T23:15:29.692Z,1019.00
2016-12-12T23:20:26.129Z,1019.02
2016-12-12T23:25:22.672Z,1018.96
2016-12-12T23:30:18.852Z,1018.85
2016-12-12T23:35:15.343Z,1018.86
2016-12-12T23:40:11.933Z,1018.77
2016-12-12T23:45:08.598Z,1018.72
2016-12-12T23:50:05.056Z,1018.71
2016-12-12T23:55:01.466Z,1018.71
2016-12-12T23:59:58.008Z,1018.67
